Time;durP1;ratioP1;P1;durP2;ratioP2;P2;SDS_P1;SDS_P2;PMS_P1;PMS_P2;Temp;Humidity;BMP_temperature;BMP_pressure;BME280_temperature;BME280_humidity;BME280_pressure;Samples;Min_cycle;Max_cycle;Signal;HPM_P1;HPM_P2
2022/01/18 00:00:41;;;;;;;5.27;4.23;;;;;;;-143.84;89.78;44062.84;5133688;27;20433;-76
2022/01/18 00:03:08;;;;;;;5.37;4.20;;;;;;;-143.84;90.60;43887.72;5133261;27;20449;-76
2022/01/18 00:05:37;;;;;;;4.67;3.97;;;;;;;-143.84;90.98;43870.59;5133476;27;21239;-75
2022/01/18 00:08:05;;;;;;;4.30;3.90;;;;;;;-143.84;91.37;43824.91;5133207;27;20446;-76
2022/01/18 00:10:33;;;;;;;6.30;4.80;;;;;;;-143.84;91.96;43815.41;5133459;27;20485;-76
2022/01/18 00:13:23;;;;;;;4.53;4.13;;;;;;;-143.84;92.25;43800.16;5132772;27;20438;-76
2022/01/18 00:16:10;;;;;;;8.47;5.50;;;;;;;-143.84;92.32;43830.63;5133002;27;20430;-76
2022/01/18 00:18:39;;;;;;;5.53;4.30;;;;;;;-143.84;92.49;43817.31;5133088;27;20449;-75
2022/01/18 00:21:22;;;;;;;5.67;5.17;;;;;;;-143.84;93.33;43834.44;5132854;27;20446;-75
2022/01/18 00:23:52;;;;;;;5.00;4.40;;;;;;;-143.84;93.78;43847.75;5132930;27;20442;-76
2022/01/18 00:26:19;;;;;;;4.70;4.40;;;;;;;-143.84;93.86;43840.13;5133190;27;20466;-76
2022/01/18 00:28:53;;;;;;;5.33;4.87;;;;;;;-143.84;93.25;43842.03;5132929;27;20440;-76
2022/01/18 00:34:12;;;;;;;4.67;4.27;;;;;;;-143.84;93.60;43851.56;5125523;27;20978;-76
2022/01/18 00:36:53;;;;;;;5.53;4.97;;;;;;;-143.84;94.02;43864.88;5133133;27;20485;-76
2022/01/18 00:39:21;;;;;;;4.63;3.80;;;;;;;-143.84;93.40;43824.91;5132797;27;20438;-76
2022/01/18 00:41:48;;;;;;;5.20;4.70;;;;;;;-143.84;93.27;43807.78;5132485;27;20960;-75
2022/01/18 00:44:16;;;;;;;4.80;4.40;;;;;;;-143.84;93.00;43824.91;5132430;27;20484;-76
2022/01/18 00:46:43;;;;;;;6.83;5.00;;;;;;;-143.84;93.49;43807.78;5132505;27;20545;-76
2022/01/18 00:49:13;;;;;;;5.97;4.90;;;;;;;-143.84;93.38;43828.72;5132474;27;20430;-76
2022/01/18 00:51:44;;;;;;;3.20;2.57;;;;;;;-143.84;92.41;43832.53;5131654;27;21393;-76
2022/01/18 00:54:20;;;;;;;2.70;2.50;;;;;;;-143.84;91.79;43862.97;5132685;27;20442;-75
2022/01/18 00:56:51;;;;;;;6.93;2.37;;;;;;;-143.84;92.27;43847.75;5132158;27;20431;-75
2022/01/18 00:59:18;;;;;;;2.30;2.10;;;;;;;-143.84;92.80;43845.84;5132270;27;20434;-75
2022/01/18 01:01:45;;;;;;;2.20;1.90;;;;;;;-143.84;92.92;43836.34;5132490;27;20514;-75
2022/01/18 01:04:13;;;;;;;2.50;1.83;;;;;;;-143.84;92.55;43834.44;5132498;27;20438;-75
2022/01/18 01:06:41;;;;;;;3.77;2.13;;;;;;;-143.84;92.91;43824.91;5132018;27;20939;-75
2022/01/18 01:09:08;;;;;;;1.70;1.60;;;;;;;-143.84;93.27;43824.91;5131929;27;20450;-75
2022/01/18 01:11:38;;;;;;;1.70;1.60;;;;;;;-143.84;94.44;43830.63;5131810;27;20490;-74
2022/01/18 01:14:08;;;;;;;12.63;2.30;;;;;;;-143.84;94.59;43851.56;5131993;27;20462;-75
2022/01/18 01:16:52;;;;;;;6.40;2.10;;;;;;;-143.84;95.27;43855.38;5131988;27;20506;-74
2022/01/18 01:19:48;;;;;;;2.00;1.90;;;;;;;-143.84;99.63;43975.28;5131974;27;20510;-75
2022/01/18 01:36:19;;;;;;;1.97;1.47;;;;;;;-143.84;98.17;43929.59;5131544;27;21053;-75
2022/01/18 01:44:26;;;;;;;2.80;1.97;;;;;;;-143.84;96.85;43895.34;5110207;27;20486;-75
2022/01/18 01:46:54;;;;;;;5.37;1.83;;;;;;;-143.84;97.17;43910.56;5131577;27;20460;-75
2022/01/18 01:49:23;;;;;;;2.97;1.90;;;;;;;-143.84;97.16;43927.69;5131459;27;20426;-75
2022/01/18 01:51:51;;;;;;;2.20;2.00;;;;;;;-143.84;96.56;43899.16;5131383;27;20489;-74
2022/01/18 01:54:19;;;;;;;1.97;1.70;;;;;;;-143.84;96.13;43895.34;5131090;27;20446;-75
2022/01/18 01:56:46;;;;;;;2.00;1.60;;;;;;;-143.84;94.54;43853.47;5131459;27;20436;-75
2022/01/18 01:59:14;;;;;;;2.90;2.07;;;;;;;-143.84;93.63;43838.25;5131483;27;20436;-75
2022/01/18 02:01:44;;;;;;;2.17;1.93;;;;;;;-143.84;92.29;43925.78;5131556;27;20438;-75
2022/01/18 02:04:11;;;;;;;2.70;1.90;;;;;;;-143.84;92.32;43952.44;5130629;27;20445;-75
2022/01/18 02:06:39;;;;;;;2.90;1.80;;;;;;;-143.84;92.02;44020.97;5130200;27;20858;-75
2022/01/18 02:09:07;;;;;;;2.60;2.40;;;;;;;-143.84;91.12;44188.50;5130776;27;20487;-75
2022/01/18 02:11:36;;;;;;;2.70;2.50;;;;;;;-143.84;90.56;44439.78;5130916;27;20478;-75
2022/01/18 02:14:05;;;;;;;6.10;2.83;;;;;;;-143.84;90.49;44550.22;5130593;27;20464;-75
2022/01/18 02:22:05;;;;;;;1.70;1.60;;;;;;;-143.84;89.37;44824.38;5131074;27;20822;-75
2022/01/18 02:24:33;;;;;;;3.90;2.07;;;;;;;-143.84;89.00;44852.94;5130506;27;20454;-75
2022/01/18 02:27:00;;;;;;;1.80;1.70;;;;;;;-143.84;87.80;45007.19;5130637;27;20935;-75
2022/01/18 02:29:27;;;;;;;1.80;1.67;;;;;;;-143.84;87.26;45026.22;5131091;27;21093;-74
2022/01/18 02:31:55;;;;;;;1.50;1.37;;;;;;;-143.84;85.20;45111.91;5130566;27;20531;-75
2022/01/18 02:34:23;;;;;;;2.20;1.57;;;;;;;-143.84;84.09;45129.03;5129963;27;20445;-75
2022/01/18 02:36:53;;;;;;;7.33;2.37;;;;;;;-143.84;84.29;45176.66;5128677;27;20433;-75
2022/01/18 02:39:23;;;;;;;2.13;1.93;;;;;;;-143.84;83.46;45178.56;5130012;27;20837;-74
2022/01/18 02:41:58;;;;;;;3.23;2.10;;;;;;;-143.84;82.97;45186.16;5130553;27;20438;-75
2022/01/18 02:44:28;;;;;;;3.93;1.63;;;;;;;-143.84;81.34;45174.75;5130501;27;20530;-75
2022/01/18 02:46:55;;;;;;;2.13;1.93;;;;;;;-143.84;80.85;45216.63;5130565;27;20471;-75
2022/01/18 02:49:23;;;;;;;2.53;1.30;;;;;;;-143.84;79.63;45188.06;5130499;28;20441;-75
2022/01/18 02:51:50;;;;;;;1.20;1.10;;;;;;;-143.84;77.47;45209.03;5130135;28;20544;-75
2022/01/18 02:54:19;;;;;;;4.80;1.70;;;;;;;-143.84;78.05;45188.06;5130419;28;20437;-75
2022/01/18 02:56:52;;;;;;;3.00;1.77;;;;;;;-143.84;78.94;45203.31;5130626;28;20438;-75
2022/01/18 02:59:31;;;;;;;2.20;2.00;;;;;;;-143.84;78.08;45222.34;5130093;28;20445;-75
2022/01/18 03:04:45;;;;;;;6.10;1.70;;;;;;;-143.84;78.17;45207.13;5130495;28;20836;-75
2022/01/18 03:07:12;;;;;;;1.67;1.57;;;;;;;-143.84;77.57;45209.03;5130212;28;20434;-75
2022/01/18 03:09:40;;;;;;;4.00;2.07;;;;;;;-143.84;78.00;45184.25;5130418;28;20438;-75
2022/01/18 03:12:11;;;;;;;1.73;1.63;;;;;;;-143.84;78.83;45186.16;5129991;28;20478;-75
2022/01/18 03:14:38;;;;;;;2.03;1.70;;;;;;;-143.84;78.48;45188.06;5130142;28;20868;-75
2022/01/18 03:17:07;;;;;;;1.60;1.50;;;;;;;-143.84;78.66;45180.47;5129948;28;20433;-75
2022/01/18 03:19:34;;;;;;;2.97;1.90;;;;;;;-143.84;79.02;45193.78;5130296;28;20466;-75
2022/01/18 03:22:01;;;;;;;2.20;1.70;;;;;;;-143.84;78.99;45180.47;5129642;28;20463;-75
2022/01/18 03:24:45;;;;;;;2.73;2.10;;;;;;;-143.84;79.22;45167.13;5130041;28;20502;-75
2022/01/18 03:29:59;;;;;;;1.67;1.57;;;;;;;-143.84;79.91;45169.03;5130163;28;20436;-75
2022/01/18 03:32:27;;;;;;;1.87;1.77;;;;;;;-143.84;80.09;45189.97;5129697;28;20436;-75
2022/01/18 03:34:54;;;;;;;3.33;3.03;;;;;;;-143.84;80.23;45178.56;5129904;28;20434;-75
2022/01/18 03:37:21;;;;;;;2.03;1.73;;;;;;;-143.84;80.38;45193.78;5129955;28;20530;-75
2022/01/18 03:39:48;;;;;;;3.80;2.17;;;;;;;-143.84;79.39;45161.41;5129757;28;20446;-75
2022/01/18 03:45:04;;;;;;;3.87;1.83;;;;;;;-143.84;79.39;45201.41;5128998;28;20457;-75
2022/01/18 03:47:32;;;;;;;2.20;2.00;;;;;;;-143.84;79.05;45207.13;5130090;27;20446;-75
2022/01/18 03:49:59;;;;;;;2.47;2.27;;;;;;;-143.84;79.04;45210.94;5133689;27;20441;-75
2022/01/18 03:52:26;;;;;;;2.27;1.90;;;;;;;-143.84;79.11;45189.97;5131775;27;21043;-75
2022/01/18 03:54:54;;;;;;;1.97;1.87;;;;;;;-143.84;78.86;45197.59;5131800;27;20879;-75
2022/01/18 03:57:23;;;;;;;1.53;1.17;;;;;;;-143.84;77.20;45203.31;5133248;27;20442;-75
2022/01/18 03:59:50;;;;;;;2.70;1.80;;;;;;;-143.84;76.23;45184.25;5132919;27;20487;-75
2022/01/18 04:02:18;;;;;;;2.17;1.60;;;;;;;-143.84;75.59;45199.50;5132609;27;20502;-75
2022/01/18 04:04:45;;;;;;;3.20;1.50;;;;;;;-143.84;75.28;45180.47;5133189;27;20453;-75
2022/01/18 04:07:13;;;;;;;3.03;2.00;;;;;;;-143.84;74.49;45193.78;5133568;27;21220;-75
2022/01/18 04:09:40;;;;;;;2.40;1.70;;;;;;;-143.84;74.41;45220.44;5133433;27;20433;-75
2022/01/18 04:12:08;;;;;;;3.00;1.40;;;;;;;-143.84;74.94;45207.13;5133110;27;20503;-75
2022/01/18 04:14:37;;;;;;;1.90;1.70;;;;;;;-143.84;74.10;45186.16;5133407;27;20542;-74
2022/01/18 04:17:11;;;;;;;2.07;1.80;;;;;;;-143.84;74.66;45184.25;5133246;27;20487;-74
2022/01/18 04:28:01;;;;;;;1.70;1.33;;;;;;;-143.84;76.31;45203.31;5132939;27;20430;-74
2022/01/18 04:30:29;;;;;;;3.00;1.57;;;;;;;-143.84;76.52;45174.75;5132000;27;20994;-74
2022/01/18 04:32:56;;;;;;;1.33;1.23;;;;;;;-143.84;76.78;45195.69;5132051;27;20450;-74
2022/01/18 04:35:24;;;;;;;12.70;1.43;;;;;;;-143.84;76.85;45180.47;5131391;27;20442;-74
2022/01/18 04:37:51;;;;;;;3.00;1.80;;;;;;;-143.84;77.29;45214.72;5132576;27;20800;-74
2022/01/18 04:40:25;;;;;;;2.83;2.10;;;;;;;-143.84;77.58;45224.25;5132519;27;20935;-74
2022/01/18 04:43:15;;;;;;;2.90;2.50;;;;;;;-143.84;78.08;45159.50;5129867;27;20758;-74
2022/01/18 04:48:31;;;;;;;3.10;2.20;;;;;;;-143.84;78.74;45201.41;5112039;28;20410;-74
2022/01/18 04:51:00;;;;;;;2.00;1.73;;;;;;;-143.84;78.87;45184.25;5111746;28;20489;-74
2022/01/18 04:53:31;;;;;;;3.73;2.00;;;;;;;-143.84;79.11;45170.94;5111701;28;20442;-74
2022/01/18 04:56:01;;;;;;;4.90;2.20;;;;;;;-143.84;78.90;45186.16;5111962;28;20463;-74
2022/01/18 04:58:29;;;;;;;3.60;2.53;;;;;;;-143.84;79.45;45178.56;5111574;28;20434;-74
2022/01/18 05:01:00;;;;;;;7.73;2.80;;;;;;;-143.84;79.82;45199.50;5110677;28;20451;-74
2022/01/18 05:03:29;;;;;;;3.00;2.73;;;;;;;-143.84;79.65;45167.13;5132428;27;20442;-74
2022/01/18 05:05:59;;;;;;;2.30;2.10;;;;;;;-143.84;79.89;45197.59;5132074;27;20450;-74
2022/01/18 05:08:27;;;;;;;7.23;2.33;;;;;;;-143.84;79.93;45178.56;5131948;27;20438;-74
2022/01/18 05:10:56;;;;;;;3.20;2.90;;;;;;;-143.84;79.99;45172.84;5131758;27;20522;-74
2022/01/18 05:16:28;;;;;;;2.57;2.37;;;;;;;-143.84;79.79;45176.66;5120898;27;20526;-74
2022/01/18 05:19:09;;;;;;;2.90;2.60;;;;;;;-143.84;79.34;45170.94;5131754;27;20503;-74
2022/01/18 05:22:57;;;;;;;3.20;2.60;;;;;;;-143.84;79.19;45199.50;5131817;27;20442;-74
2022/01/18 05:24:26;;;;;;;2.20;2.00;;;;;;;-143.84;79.24;45189.97;5131473;27;20434;-74
2022/01/18 05:26:55;;;;;;;3.00;2.30;;;;;;;-143.84;78.61;45214.72;5131731;27;20870;-74
2022/01/18 05:29:23;;;;;;;4.83;3.30;;;;;;;-143.84;77.76;45169.03;5131668;27;20434;-74
2022/01/18 05:31:51;;;;;;;16.10;11.00;;;;;;;-143.84;76.75;45205.22;5131429;27;20530;-74
2022/01/18 05:34:19;;;;;;;8.53;7.20;;;;;;;-143.84;76.54;45212.84;5131115;27;20481;-74
2022/01/18 05:36:47;;;;;;;5.00;2.90;;;;;;;-143.84;75.59;45191.88;5131163;27;20434;-74
2022/01/18 05:39:14;;;;;;;5.57;3.43;;;;;;;-143.84;74.47;45209.03;5131435;27;20441;-74
2022/01/18 05:41:44;;;;;;;8.03;4.70;;;;;;;-143.84;74.40;45195.69;5131633;27;20427;-74
2022/01/18 05:44:11;;;;;;;18.50;10.20;;;;;;;-143.84;74.41;45189.97;5112773;27;20888;-74
2022/01/18 05:46:38;;;;;;;16.03;9.33;;;;;;;-143.84;73.68;45197.59;5111521;28;20439;-74
2022/01/18 05:49:07;;;;;;;7.53;3.90;;;;;;;-143.84;73.35;45167.13;5110358;28;20446;-73
2022/01/18 05:51:37;;;;;;;8.73;5.33;;;;;;;-143.84;72.50;45210.94;5110292;28;20471;-74
2022/01/18 05:54:05;;;;;;;4.90;3.23;;;;;;;-143.84;72.23;45186.16;5112090;28;20508;-73
2022/01/18 05:56:32;;;;;;;11.47;2.97;;;;;;;-143.84;73.57;45195.69;5111356;28;20547;-74
2022/01/18 05:59:03;;;;;;;6.60;3.90;;;;;;;-143.84;72.50;45209.03;5110371;28;20488;-73
2022/01/18 06:01:35;;;;;;;8.03;4.10;;;;;;;-143.84;71.99;45188.06;5109686;28;20434;-73
2022/01/18 06:04:15;;;;;;;7.50;4.47;;;;;;;-143.84;71.87;45218.53;5109792;28;20476;-74
2022/01/18 06:06:53;;;;;;;8.17;3.57;;;;;;;-143.84;71.54;45189.97;5110411;28;20489;-73
2022/01/18 06:09:24;;;;;;;3.80;2.80;;;;;;;-143.84;71.82;45186.16;5109430;28;20428;-73
2022/01/18 06:11:51;;;;;;;4.27;2.83;;;;;;;-143.84;72.56;45207.13;5110159;28;20471;-73
2022/01/18 06:14:19;;;;;;;5.73;3.43;;;;;;;-143.84;72.26;45182.38;5108529;28;20447;-74
2022/01/18 06:16:47;;;;;;;2.60;2.37;;;;;;;-143.84;72.45;45201.41;5109601;28;20488;-74
2022/01/18 06:19:14;;;;;;;3.07;2.87;;;;;;;-143.84;72.13;45205.22;5110766;28;20428;-74
2022/01/18 06:21:43;;;;;;;4.13;3.33;;;;;;;-143.84;72.08;45201.41;5108496;28;21029;-74
2022/01/18 06:24:11;;;;;;;5.53;3.30;;;;;;;-143.84;72.19;45222.34;5108394;28;20450;-74
2022/01/18 06:26:39;;;;;;;14.27;3.37;;;;;;;-143.84;72.26;45184.25;5107949;28;20431;-74
2022/01/18 06:29:06;;;;;;;5.37;3.93;;;;;;;-143.84;72.16;45161.41;5109630;27;20442;-71
2022/01/18 06:31:34;;;;;;;5.20;4.17;;;;;;;-143.84;72.01;45226.16;5102532;28;20476;-71
2022/01/18 06:34:01;;;;;;;5.10;3.40;;;;;;;-143.84;72.08;45201.41;5096411;28;20444;-71
2022/01/18 06:36:28;;;;;;;5.53;4.00;;;;;;;-143.84;71.88;45180.47;5105282;28;20452;-71
2022/01/18 06:38:57;;;;;;;6.53;3.07;;;;;;;-143.84;71.33;45216.63;5101953;28;20463;-70
2022/01/18 06:41:24;;;;;;;6.03;3.00;;;;;;;-143.84;71.12;45199.50;5097362;28;20452;-70
2022/01/18 06:43:52;;;;;;;3.73;3.10;;;;;;;-143.84;71.12;45197.59;5104867;28;20847;-71
2022/01/18 06:46:19;;;;;;;3.87;3.47;;;;;;;-143.84;70.72;45212.84;5111153;28;20932;-72
2022/01/18 06:48:46;;;;;;;3.77;3.33;;;;;;;-143.84;71.08;45184.25;5115946;28;20446;-71
2022/01/18 06:51:14;;;;;;;4.00;2.53;;;;;;;-143.84;69.41;45188.06;5103969;28;20444;-72
2022/01/18 06:53:46;;;;;;;3.20;2.40;;;;;;;-143.84;68.63;45218.53;5102945;28;20983;-72
2022/01/18 06:56:17;;;;;;;4.23;2.50;;;;;;;-143.84;68.14;45199.50;5111489;28;20512;-72
2022/01/18 06:58:45;;;;;;;3.13;2.03;;;;;;;-143.84;66.75;45193.78;5111844;28;20471;-72
2022/01/18 07:01:13;;;;;;;3.70;3.17;;;;;;;-143.84;66.59;45231.88;5112216;28;20441;-72
2022/01/18 07:03:41;;;;;;;4.80;3.20;;;;;;;-143.84;65.68;45189.97;5110195;28;20448;-70
2022/01/18 07:06:08;;;;;;;3.20;2.80;;;;;;;-143.84;65.16;45189.97;5109172;28;20435;-72
2022/01/18 07:08:36;;;;;;;2.73;2.17;;;;;;;-143.84;65.16;45153.81;5115584;28;20459;-71
2022/01/18 07:11:04;;;;;;;3.73;3.20;;;;;;;-143.84;63.96;45195.69;5111355;28;20451;-72
2022/01/18 07:13:33;;;;;;;4.13;2.50;;;;;;;-143.84;63.41;45161.41;5110749;28;20452;-74
2022/01/18 07:16:00;;;;;;;2.73;2.53;;;;;;;-143.84;63.11;45180.47;5110843;28;20459;-75
2022/01/18 07:18:28;;;;;;;2.60;2.23;;;;;;;-143.84;60.98;45155.69;5109985;28;20443;-72
2022/01/18 07:20:55;;;;;;;4.30;2.03;;;;;;;-143.84;59.58;45165.22;5110483;28;20497;-73
2022/01/18 07:23:22;;;;;;;3.50;2.77;;;;;;;-143.84;59.02;45155.69;5111390;28;20439;-72
2022/01/18 07:25:50;;;;;;;5.83;4.00;;;;;;;-143.84;57.50;45170.94;5114709;28;20449;-72
2022/01/18 07:28:18;;;;;;;4.90;2.90;;;;;;;-143.84;55.29;45180.47;5114323;28;20861;-72
2022/01/18 07:30:48;;;;;;;4.77;3.50;;;;;;;-143.84;54.75;45174.75;5114867;28;20435;-72
2022/01/18 07:33:15;;;;;;;5.53;3.17;;;;;;;-143.84;54.96;45174.75;5114075;28;21840;-71
2022/01/18 07:35:43;;;;;;;5.93;3.63;;;;;;;-143.84;54.50;45186.16;5133854;27;20474;-73
2022/01/18 07:38:12;;;;;;;6.87;4.40;;;;;;;-143.84;54.00;45195.69;5135476;27;20440;-73
2022/01/18 07:40:42;;;;;;;7.50;4.00;;;;;;;-143.84;53.08;45195.69;5135126;27;20456;-73
2022/01/18 07:43:10;;;;;;;3.90;2.90;;;;;;;-143.84;53.37;45170.94;5135123;27;20461;-73
2022/01/18 07:45:38;;;;;;;3.83;2.60;;;;;;;-143.84;53.97;45165.22;5135006;27;20974;-73
2022/01/18 07:48:07;;;;;;;2.63;2.27;;;;;;;-143.84;54.55;45189.97;5134731;27;20459;-73
2022/01/18 07:50:35;;;;;;;3.70;2.13;;;;;;;-143.84;53.49;45169.03;5134930;27;20437;-73
2022/01/18 07:53:02;;;;;;;3.83;2.27;;;;;;;-143.84;52.55;45174.75;5134452;27;20826;-73
2022/01/18 07:55:29;;;;;;;2.97;2.10;;;;;;;-143.84;53.83;45189.97;5133925;27;20430;-73
2022/01/18 07:57:58;;;;;;;4.23;1.97;;;;;;;-143.84;52.18;45186.16;5129655;27;20441;-73
2022/01/18 08:00:26;;;;;;;2.57;2.13;;;;;;;-143.84;51.25;45172.84;5132039;27;20491;-73
2022/01/18 08:02:53;;;;;;;1.73;1.57;;;;;;;-143.84;50.46;45167.13;5132627;27;20510;-73
2022/01/18 08:05:21;;;;;;;2.17;1.80;;;;;;;-143.84;50.08;45170.94;5132961;27;21214;-73
2022/01/18 08:07:49;;;;;;;6.10;1.70;;;;;;;-143.84;49.94;45176.66;5133470;27;20441;-73
2022/01/18 08:10:17;;;;;;;3.90;1.90;;;;;;;-143.84;49.14;45125.22;5133435;27;20438;-73
2022/01/18 08:12:45;;;;;;;3.37;2.00;;;;;;;-143.84;48.14;45151.91;5133024;27;20470;-73
2022/01/18 08:15:16;;;;;;;2.50;1.90;;;;;;;-143.84;47.66;45153.81;5133738;27;20441;-73
2022/01/18 08:17:45;;;;;;;8.70;4.40;;;;;;;-143.84;48.99;45140.47;5133468;27;20545;-73
2022/01/18 08:20:14;;;;;;;4.10;2.70;;;;;;;-143.84;48.20;45153.81;5132700;27;20430;-73
2022/01/18 08:22:43;;;;;;;6.87;2.93;;;;;;;-143.84;47.46;45151.91;5132258;27;20446;-73
2022/01/18 08:25:11;;;;;;;6.07;3.17;;;;;;;-143.84;47.61;45153.81;5133607;27;20498;-73
2022/01/18 08:27:39;;;;;;;3.70;3.07;;;;;;;-143.84;48.96;45151.91;5133249;27;20440;-73
2022/01/18 08:30:09;;;;;;;13.50;6.07;;;;;;;-143.84;47.48;45157.59;5133237;27;20907;-73
2022/01/18 08:32:37;;;;;;;3.00;2.80;;;;;;;-143.84;47.03;45155.69;5115418;27;20987;-73
2022/01/18 08:35:06;;;;;;;9.63;2.93;;;;;;;-143.84;46.69;45123.34;5133055;27;20577;-73
2022/01/18 08:37:33;;;;;;;6.57;3.47;;;;;;;-143.84;47.42;45102.38;5133415;27;20445;-73
2022/01/18 08:40:02;;;;;;;2.13;1.93;;;;;;;-143.84;45.75;45157.59;5133272;27;20988;-73
2022/01/18 08:42:29;;;;;;;5.47;2.67;;;;;;;-143.84;45.96;45153.81;5133328;27;20445;-73
2022/01/18 08:44:56;;;;;;;6.07;2.60;;;;;;;-143.84;45.53;45155.69;5132682;27;20497;-73
2022/01/18 08:47:25;;;;;;;7.27;2.87;;;;;;;-143.84;45.53;45140.47;5132634;27;20449;-73
2022/01/18 08:49:52;;;;;;;4.50;2.70;;;;;;;-143.84;45.29;45150.00;5132595;27;20525;-73
2022/01/18 08:52:20;;;;;;;20.50;3.17;;;;;;;-143.84;45.43;45130.94;5133748;27;20474;-74
2022/01/18 08:54:47;;;;;;;3.60;2.50;;;;;;;-143.84;44.29;45151.91;5133423;27;20495;-74
2022/01/18 08:57:16;;;;;;;5.23;2.10;;;;;;;-143.84;45.19;45161.41;5133446;27;20846;-74
2022/01/18 08:59:45;;;;;;;3.73;2.60;;;;;;;-143.84;44.67;45144.28;5133006;27;20536;-74
2022/01/18 09:02:13;;;;;;;4.13;2.50;;;;;;;-143.84;44.61;45148.09;5132940;27;20457;-74
2022/01/18 09:04:41;;;;;;;4.13;2.57;;;;;;;-143.84;44.32;45157.59;5133211;27;20524;-74
2022/01/18 09:07:10;;;;;;;2.27;2.07;;;;;;;-143.84;43.41;45144.28;5132632;27;20442;-73
2022/01/18 09:09:39;;;;;;;3.50;3.00;;;;;;;-143.84;43.50;45155.69;5132785;27;20442;-73
2022/01/18 09:12:08;;;;;;;2.53;2.33;;;;;;;-143.84;42.82;45119.53;5132440;27;20519;-73
2022/01/18 09:14:36;;;;;;;5.83;2.70;;;;;;;-143.84;42.17;45130.94;5132666;27;20438;-73
2022/01/18 09:17:04;;;;;;;3.80;2.50;;;;;;;-143.84;42.20;45146.19;5132025;27;20495;-73
2022/01/18 09:19:31;;;;;;;2.97;2.13;;;;;;;-143.84;42.50;45140.47;5132287;27;20906;-73
2022/01/18 09:22:00;;;;;;;5.90;2.63;;;;;;;-143.84;42.23;45132.84;5131985;27;20449;-73
2022/01/18 09:24:27;;;;;;;3.00;2.80;;;;;;;-143.84;41.73;45123.34;5132005;27;20460;-73
2022/01/18 09:26:55;;;;;;;5.90;2.50;;;;;;;-143.84;42.19;45125.22;5131976;27;20443;-73
2022/01/18 09:29:22;;;;;;;2.20;1.90;;;;;;;-143.84;41.41;45153.81;5131803;27;20492;-73
2022/01/18 09:31:51;;;;;;;2.87;2.57;;;;;;;-143.84;40.74;45136.66;5131963;27;20506;-73
2022/01/18 09:34:18;;;;;;;2.47;1.90;;;;;;;-143.84;40.96;45127.13;5131932;27;20442;-73
2022/01/18 09:36:45;;;;;;;10.67;4.87;;;;;;;-143.84;40.00;45130.94;5132195;27;20840;-73
2022/01/18 09:39:13;;;;;;;3.37;2.70;;;;;;;-143.84;39.66;45144.28;5131764;27;20434;-73
2022/01/18 09:41:43;;;;;;;2.17;2.07;;;;;;;-143.84;40.13;45140.47;5131361;27;20857;-73
2022/01/18 09:44:10;;;;;;;7.30;3.70;;;;;;;-143.84;39.92;45129.03;5118112;27;20948;-73
2022/01/18 09:46:38;;;;;;;6.30;3.00;;;;;;;-143.84;40.22;45136.66;5110694;28;21132;-73
2022/01/18 09:49:06;;;;;;;4.17;3.40;;;;;;;-143.84;39.94;45110.00;5111402;28;20431;-73
2022/01/18 09:51:34;;;;;;;4.83;2.67;;;;;;;-143.84;39.10;45110.00;5111217;28;20462;-73
2022/01/18 09:54:01;;;;;;;9.73;4.13;;;;;;;-143.84;38.97;45119.53;5110836;28;20981;-73
2022/01/18 09:56:29;;;;;;;5.30;2.20;;;;;;;-143.84;38.84;45121.44;5110707;28;20443;-73
2022/01/18 09:58:56;;;;;;;2.43;2.23;;;;;;;-143.84;39.55;45140.47;5110834;28;20443;-73
2022/01/18 10:01:23;;;;;;;3.77;2.33;;;;;;;-143.84;38.60;45153.81;5111076;28;20435;-73
2022/01/18 10:03:50;;;;;;;15.00;3.63;;;;;;;-143.84;39.60;45130.94;5110976;28;20447;-73
2022/01/18 10:06:21;;;;;;;5.90;3.43;;;;;;;-143.84;38.71;45121.44;5110365;28;20442;-73
2022/01/18 10:08:49;;;;;;;3.83;2.90;;;;;;;-143.84;38.81;45150.00;5110164;28;20533;-73
2022/01/18 10:11:20;;;;;;;5.40;2.40;;;;;;;-143.84;37.80;45142.38;5110396;28;20531;-73
2022/01/18 10:13:49;;;;;;;3.30;2.20;;;;;;;-143.84;38.90;45125.22;5110205;28;20583;-73
2022/01/18 10:16:20;;;;;;;5.10;2.47;;;;;;;-143.84;38.44;45129.03;5109736;28;20427;-73
2022/01/18 10:18:49;;;;;;;6.40;3.57;;;;;;;-143.84;38.15;45144.28;5109403;28;20946;-73
2022/01/18 10:21:28;;;;;;;2.60;2.23;;;;;;;-143.84;38.00;45134.75;5109906;28;20524;-73
2022/01/18 10:24:12;;;;;;;4.03;2.30;;;;;;;-143.84;37.60;45094.78;5110206;28;20451;-73
2022/01/18 10:26:42;;;;;;;2.17;1.93;;;;;;;-143.84;36.76;45115.72;5109834;28;20448;-73
2022/01/18 10:29:10;;;;;;;6.57;3.67;;;;;;;-143.84;37.39;45134.75;5110099;28;20505;-73
2022/01/18 10:31:42;;;;;;;6.70;3.10;;;;;;;-143.84;37.18;45125.22;5110077;28;20504;-73
2022/01/18 10:34:39;;;;;;;8.43;4.10;;;;;;;-143.84;37.67;45117.63;5109712;28;20479;-73
2022/01/18 10:37:10;;;;;;;4.87;3.57;;;;;;;-143.84;37.46;45104.28;5109723;28;20454;-73
2022/01/18 10:39:39;;;;;;;8.37;3.67;;;;;;;-143.84;38.04;45111.91;5110058;28;20435;-73
2022/01/18 10:42:17;;;;;;;5.20;3.47;;;;;;;-143.84;38.13;45136.66;5109913;28;20439;-73
2022/01/18 10:44:46;;;;;;;6.10;2.80;;;;;;;-143.84;38.55;45136.66;5109961;28;20481;-74
2022/01/18 10:47:14;;;;;;;4.50;3.00;;;;;;;-143.84;37.35;45108.09;5110252;28;20440;-74
2022/01/18 10:49:45;;;;;;;5.57;3.67;;;;;;;-143.84;37.62;45113.81;5110971;28;20798;-74
2022/01/18 10:52:18;;;;;;;5.00;3.27;;;;;;;-143.84;37.78;45142.38;5110764;28;20420;-74
2022/01/18 10:54:47;;;;;;;3.37;2.23;;;;;;;-143.84;38.29;45098.56;5110362;28;20436;-74
2022/01/18 10:57:19;;;;;;;4.70;3.30;;;;;;;-143.84;37.72;45136.66;5110102;28;20440;-73
2022/01/18 10:59:46;;;;;;;5.00;3.00;;;;;;;-143.84;37.00;45148.09;5113611;28;20493;-73
2022/01/18 11:02:17;;;;;;;6.10;2.77;;;;;;;-143.84;37.24;45123.34;5113822;28;20530;-73
2022/01/18 11:04:47;;;;;;;4.20;2.13;;;;;;;-143.84;37.16;45132.84;5114218;28;20439;-73
2022/01/18 11:07:18;;;;;;;4.53;2.93;;;;;;;-143.84;37.37;45146.19;5114156;28;20435;-73
2022/01/18 11:09:46;;;;;;;6.50;3.40;;;;;;;-143.84;37.64;45144.28;5114648;28;20424;-73
2022/01/18 11:12:13;;;;;;;5.43;2.70;;;;;;;-143.84;37.70;45129.03;5114077;28;21420;-73
2022/01/18 11:14:45;;;;;;;2.90;2.00;;;;;;;-143.84;37.79;45130.94;5114304;28;20496;-73
2022/01/18 11:17:21;;;;;;;4.40;2.60;;;;;;;-143.84;38.18;45151.91;5113871;28;20439;-73
2022/01/18 11:19:50;;;;;;;3.10;2.07;;;;;;;-143.84;38.67;45138.56;5113583;28;20454;-73
2022/01/18 11:22:19;;;;;;;9.00;3.20;;;;;;;-143.84;38.29;45144.28;5113486;28;20450;-73
2022/01/18 11:24:48;;;;;;;2.37;2.17;;;;;;;-143.84;37.86;45125.22;5113607;28;20497;-73
2022/01/18 11:27:18;;;;;;;3.53;3.10;;;;;;;-143.84;37.26;45129.03;5113224;28;20906;-73
2022/01/18 11:29:47;;;;;;;2.50;2.30;;;;;;;-143.84;37.50;45108.09;5113421;28;20432;-73
2022/01/18 11:32:15;;;;;;;3.07;2.20;;;;;;;-143.84;37.41;45123.34;5113059;28;20829;-73
2022/01/18 11:34:54;;;;;;;7.13;2.80;;;;;;;-143.84;37.65;45132.84;5112807;28;20559;-73
2022/01/18 11:37:31;;;;;;;6.20;2.57;;;;;;;-143.84;37.37;45123.34;5113163;28;20447;-73
2022/01/18 11:40:00;;;;;;;5.20;2.70;;;;;;;-143.84;37.35;45150.00;5113128;28;20437;-73
2022/01/18 11:42:50;;;;;;;9.23;3.40;;;;;;;-143.84;37.86;45129.03;5112884;28;20538;-73
2022/01/18 11:45:32;;;;;;;9.37;3.03;;;;;;;-143.84;37.61;45125.22;5113191;28;20450;-73
2022/01/18 11:48:01;;;;;;;4.03;2.40;;;;;;;-143.84;37.72;45140.47;5112666;28;21041;-73
2022/01/18 11:50:29;;;;;;;3.00;2.40;;;;;;;-143.84;37.93;45111.91;5112281;28;20507;-73
2022/01/18 11:53:27;;;;;;;4.60;3.30;;;;;;;-143.84;38.52;45136.66;5112525;28;21128;-73
2022/01/18 11:55:56;;;;;;;3.73;2.40;;;;;;;-143.84;38.47;45127.13;5112615;28;20914;-73
2022/01/18 11:58:24;;;;;;;6.70;2.50;;;;;;;-143.84;37.84;45148.09;5112803;28;20476;-73
2022/01/18 12:00:55;;;;;;;5.37;2.60;;;;;;;-143.84;37.83;45138.56;5113038;28;20431;-73
2022/01/18 12:03:26;;;;;;;3.80;2.80;;;;;;;-143.84;38.18;45142.38;5112726;28;20457;-73
2022/01/18 12:05:53;;;;;;;7.13;3.40;;;;;;;-143.84;38.47;45129.03;5112508;28;20442;-73
2022/01/18 12:08:38;;;;;;;5.30;3.83;;;;;;;-143.84;38.17;45132.84;5111912;28;20443;-73
2022/01/18 12:11:08;;;;;;;4.40;3.20;;;;;;;-143.84;38.48;45130.94;5109207;28;20834;-73
2022/01/18 12:13:44;;;;;;;7.77;3.20;;;;;;;-143.84;38.28;45150.00;5111843;28;20897;-73
2022/01/18 12:16:27;;;;;;;5.70;3.63;;;;;;;-143.84;39.03;45117.63;5111825;28;20445;-73
2022/01/18 12:18:57;;;;;;;5.80;3.07;;;;;;;-143.84;38.80;45150.00;5111476;28;20520;-73